Time;durP1;ratioP1;P1;durP2;ratioP2;P2;SDS_P1;SDS_P2;PMS_P1;PMS_P2;Temp;Humidity;BMP_temperature;BMP_pressure;BME280_temperature;BME280_humidity;BME280_pressure;Samples;Min_cycle;Max_cycle;Signal;HPM_P1;HPM_P2
2021/07/10 00:00:44;;;;;;;18.70;17.00;;;14.60;99.90;;;;;;5049627;28;20452;-64
2021/07/10 00:03:11;;;;;;;20.80;18.60;;;14.60;99.90;;;;;;5049509;28;20482;-64
2021/07/10 00:05:38;;;;;;;25.50;19.60;;;14.50;99.90;;;;;;5049758;28;21118;-66
2021/07/10 00:08:05;;;;;;;21.13;18.90;;;14.50;99.90;;;;;;5044786;28;20449;-66
2021/07/10 00:10:32;;;;;;;26.60;20.23;;;14.50;99.90;;;;;;5045428;28;20893;-63
2021/07/10 00:13:01;;;;;;;20.03;17.97;;;14.40;99.90;;;;;;5050169;28;21134;-65
2021/07/10 00:15:28;;;;;;;19.37;17.47;;;14.40;99.90;;;;;;5049317;28;21303;-63
2021/07/10 00:17:55;;;;;;;20.20;17.97;;;14.40;99.90;;;;;;5049260;28;20529;-64
2021/07/10 00:20:23;;;;;;;19.70;17.67;;;14.30;99.90;;;;;;5048771;28;20540;-63
2021/07/10 00:22:50;;;;;;;20.13;16.30;;;14.30;99.90;;;;;;5049620;28;20574;-65
2021/07/10 00:25:19;;;;;;;18.83;16.93;;;14.20;99.90;;;;;;5048554;28;20444;-66
2021/07/10 00:27:47;;;;;;;18.63;16.87;;;14.20;99.90;;;;;;5049044;28;20522;-60
2021/07/10 00:30:20;;;;;;;21.13;18.93;;;14.20;99.90;;;;;;5048708;28;20454;-63
2021/07/10 00:32:47;;;;;;;22.07;18.10;;;14.10;99.90;;;;;;5049286;28;21012;-63
2021/07/10 00:35:15;;;;;;;22.37;16.60;;;14.10;99.90;;;;;;5049232;28;20992;-65
2021/07/10 00:37:42;;;;;;;22.77;18.50;;;14.20;99.90;;;;;;5048461;28;20888;-66
2021/07/10 00:40:11;;;;;;;21.87;19.53;;;14.20;99.90;;;;;;5041578;28;20878;-63
2021/07/10 00:42:38;;;;;;;22.37;19.30;;;14.10;99.90;;;;;;5049868;28;20490;-63
2021/07/10 00:45:08;;;;;;;19.10;17.10;;;14.00;99.90;;;;;;5049330;28;20475;-63
2021/07/10 00:47:37;;;;;;;20.10;17.87;;;14.00;99.90;;;;;;5049186;28;20456;-65
2021/07/10 00:50:08;;;;;;;18.83;16.27;;;14.00;99.90;;;;;;5048897;28;20526;-66
2021/07/10 00:52:35;;;;;;;20.00;17.73;;;13.90;99.90;;;;;;5049576;28;20478;-65
2021/07/10 00:55:03;;;;;;;19.90;17.13;;;13.90;99.90;;;;;;5049265;28;21144;-66
2021/07/10 00:57:30;;;;;;;22.50;18.07;;;13.90;99.90;;;;;;5047969;28;20452;-63
2021/07/10 00:59:56;;;;;;;21.37;18.20;;;13.70;99.90;;;;;;5048254;28;20487;-66
2021/07/10 01:02:23;;;;;;;22.30;17.70;;;13.70;99.90;;;;;;5048715;28;20543;-66
2021/07/10 01:04:52;;;;;;;25.60;19.60;;;13.60;99.90;;;;;;5048777;28;20856;-65
2021/07/10 01:07:19;;;;;;;23.20;20.70;;;13.60;99.90;;;;;;5042451;28;20474;-67
2021/07/10 01:09:45;;;;;;;25.07;19.60;;;13.60;99.90;;;;;;5047355;28;20868;-66
2021/07/10 01:12:12;;;;;;;24.13;20.80;;;13.60;99.90;;;;;;5048127;28;20547;-66
2021/07/10 01:14:39;;;;;;;23.13;17.60;;;13.70;99.90;;;;;;5048496;28;21006;-65
2021/07/10 01:17:06;;;;;;;24.53;20.00;;;13.70;99.90;;;;;;5048428;28;20454;-66
2021/07/10 01:19:33;;;;;;;23.40;20.30;;;13.70;99.90;;;;;;5047674;28;21324;-66
2021/07/10 01:22:01;;;;;;;24.10;19.10;;;13.70;99.90;;;;;;5043727;28;20482;-67
2021/07/10 01:24:28;;;;;;;26.50;19.90;;;13.70;99.90;;;;;;5045694;28;20583;-65
2021/07/10 01:26:55;;;;;;;25.77;21.07;;;13.60;99.90;;;;;;5047905;28;20813;-65
2021/07/10 01:29:22;;;;;;;26.90;21.40;;;13.60;99.90;;;;;;5046864;28;20444;-66
2021/07/10 01:31:49;;;;;;;23.70;20.00;;;13.60;99.90;;;;;;5048057;28;20482;-66
2021/07/10 01:34:16;;;;;;;21.70;19.40;;;13.60;99.90;;;;;;5047251;28;20450;-66
2021/07/10 01:36:43;;;;;;;22.27;19.30;;;13.50;99.90;;;;;;5047389;28;20444;-66
2021/07/10 01:39:12;;;;;;;22.10;18.10;;;13.50;99.90;;;;;;5037896;28;20644;-65
2021/07/10 01:41:46;;;;;;;24.10;20.50;;;13.50;99.90;;;;;;5047969;28;20474;-65
2021/07/10 01:44:13;;;;;;;21.77;18.80;;;13.50;99.90;;;;;;5047848;28;20481;-66
2021/07/10 01:46:41;;;;;;;21.63;18.83;;;13.50;99.90;;;;;;5047947;28;20921;-65
2021/07/10 01:49:08;;;;;;;23.83;19.53;;;13.40;99.90;;;;;;5047706;28;20450;-66
2021/07/10 01:51:35;;;;;;;24.17;18.70;;;13.40;99.90;;;;;;5047663;28;20482;-65
2021/07/10 01:54:03;;;;;;;30.17;19.63;;;13.40;99.90;;;;;;5044830;28;20468;-65
2021/07/10 01:56:31;;;;;;;24.30;20.50;;;13.30;99.90;;;;;;5028732;28;20869;-65
2021/07/10 01:58:58;;;;;;;25.63;20.00;;;13.30;99.90;;;;;;5027124;28;20453;-65
2021/07/10 02:01:25;;;;;;;22.83;19.33;;;13.30;99.90;;;;;;5028403;28;20943;-64
2021/07/10 02:03:52;;;;;;;21.93;18.10;;;13.30;99.90;;;;;;5028678;28;20503;-65
2021/07/10 02:06:19;;;;;;;23.93;20.90;;;13.20;99.90;;;;;;5030150;28;20798;-66
2021/07/10 02:08:46;;;;;;;23.60;19.20;;;13.30;99.90;;;;;;5049069;28;20448;-66
2021/07/10 02:11:13;;;;;;;23.80;19.47;;;13.30;99.90;;;;;;5034487;28;20476;-64
2021/07/10 02:13:42;;;;;;;26.13;19.63;;;13.20;99.90;;;;;;5049856;28;20858;-66
2021/07/10 02:16:09;;;;;;;22.23;19.00;;;13.20;99.90;;;;;;5049777;28;20538;-65
2021/07/10 02:18:36;;;;;;;20.93;18.00;;;13.10;99.90;;;;;;5049886;28;20815;-67
2021/07/10 02:21:04;;;;;;;26.37;20.40;;;13.10;99.90;;;;;;5048042;28;20444;-65
2021/07/10 02:23:31;;;;;;;23.50;18.43;;;13.10;99.90;;;;;;5049900;28;20447;-68
2021/07/10 02:25:58;;;;;;;25.23;20.50;;;13.00;99.90;;;;;;5049467;28;20470;-65
2021/07/10 02:28:24;;;;;;;25.20;22.27;;;13.00;99.90;;;;;;5049820;28;20455;-65
2021/07/10 02:30:53;;;;;;;30.67;23.50;;;13.00;99.90;;;;;;5048879;28;20820;-65
2021/07/10 02:33:19;;;;;;;26.90;20.67;;;13.00;99.90;;;;;;5050119;28;20457;-66
2021/07/10 02:35:47;;;;;;;25.87;21.30;;;13.00;99.90;;;;;;5049975;28;20436;-64
2021/07/10 02:38:14;;;;;;;24.90;20.73;;;13.00;99.90;;;;;;5049564;28;20937;-64
2021/07/10 02:40:41;;;;;;;26.63;21.93;;;13.10;99.90;;;;;;5049130;28;20543;-65
2021/07/10 02:43:08;;;;;;;28.57;22.30;;;13.10;99.90;;;;;;5049889;28;20466;-64
2021/07/10 02:45:36;;;;;;;29.90;22.03;;;13.00;99.90;;;;;;5049967;28;20483;-64
2021/07/10 02:48:05;;;;;;;34.60;26.03;;;13.00;99.90;;;;;;5054519;28;20447;-67
2021/07/10 02:50:32;;;;;;;39.10;25.37;;;13.00;99.90;;;;;;5055936;28;20825;-65
2021/07/10 02:53:01;;;;;;;31.53;23.07;;;13.00;99.90;;;;;;5056417;28;20474;-66
2021/07/10 02:55:29;;;;;;;29.20;24.33;;;13.00;99.90;;;;;;5056451;28;20475;-67
2021/07/10 02:57:56;;;;;;;30.20;23.60;;;13.10;99.90;;;;;;5055965;28;20454;-65
2021/07/10 03:00:25;;;;;;;28.27;23.00;;;13.10;99.90;;;;;;5055655;28;20534;-65
2021/07/10 03:02:52;;;;;;;31.03;24.40;;;13.00;99.90;;;;;;5056057;28;20555;-66
2021/07/10 03:05:21;;;;;;;29.93;23.93;;;13.00;99.90;;;;;;5056190;28;20487;-65
2021/07/10 03:07:48;;;;;;;29.47;24.40;;;12.90;99.90;;;;;;5055753;28;20954;-66
2021/07/10 03:10:16;;;;;;;28.00;22.93;;;13.00;99.90;;;;;;5055135;28;20451;-67
2021/07/10 03:12:43;;;;;;;23.57;21.07;;;13.10;99.90;;;;;;5055847;28;20478;-66
2021/07/10 03:15:13;;;;;;;29.30;23.67;;;13.10;99.90;;;;;;5055925;28;20967;-66
2021/07/10 03:17:40;;;;;;;27.13;21.00;;;13.00;99.90;;;;;;5055990;28;20458;-67
2021/07/10 03:20:08;;;;;;;25.87;21.90;;;12.90;99.90;;;;;;5055170;28;20530;-66
2021/07/10 03:22:36;;;;;;;24.17;21.67;;;12.90;99.90;;;;;;5056279;28;20483;-66
2021/07/10 03:25:05;;;;;;;31.20;24.30;;;12.90;99.90;;;;;;5055530;28;20548;-66
2021/07/10 03:27:32;;;;;;;27.33;22.97;;;12.90;99.90;;;;;;5055692;28;20444;-66
2021/07/10 03:30:00;;;;;;;24.70;21.60;;;13.00;99.90;;;;;;5055290;28;20448;-67
2021/07/10 03:32:26;;;;;;;24.83;21.73;;;12.90;99.90;;;;;;5055830;28;20473;-65
2021/07/10 03:34:53;;;;;;;27.60;21.50;;;12.90;99.90;;;;;;5056076;28;20439;-67
2021/07/10 03:37:20;;;;;;;25.23;20.87;;;12.90;99.90;;;;;;5055724;28;20444;-66
2021/07/10 03:39:48;;;;;;;25.60;21.37;;;12.90;99.90;;;;;;5054843;28;20456;-66
2021/07/10 03:42:16;;;;;;;24.70;20.17;;;12.90;99.90;;;;;;5055762;28;20989;-64
2021/07/10 03:44:42;;;;;;;26.23;20.53;;;12.90;99.90;;;;;;5056290;28;20475;-63
2021/07/10 03:47:09;;;;;;;22.60;20.20;;;12.90;99.90;;;;;;5055313;28;20962;-67
2021/07/10 03:49:36;;;;;;;23.20;18.70;;;12.90;99.90;;;;;;5055343;28;20450;-65
2021/07/10 03:52:03;;;;;;;20.53;18.33;;;12.90;99.90;;;;;;5055359;28;21001;-65
2021/07/10 03:54:30;;;;;;;23.40;19.03;;;12.80;99.90;;;;;;5055879;28;20451;-67
2021/07/10 03:56:59;;;;;;;23.70;20.00;;;12.80;99.90;;;;;;5055502;28;20458;-65
2021/07/10 03:59:26;;;;;;;21.20;18.53;;;12.90;99.90;;;;;;5052833;28;20459;-67
2021/07/10 04:01:52;;;;;;;22.97;19.83;;;12.90;99.90;;;;;;5052319;28;20464;-65
2021/07/10 04:04:19;;;;;;;22.30;19.83;;;12.90;99.90;;;;;;5052409;28;20476;-66
2021/07/10 04:06:46;;;;;;;23.73;19.63;;;12.80;99.90;;;;;;5051870;28;20450;-66
2021/07/10 04:09:13;;;;;;;25.57;20.07;;;12.80;99.90;;;;;;5051847;28;21107;-65
2021/07/10 04:11:40;;;;;;;30.83;20.77;;;12.90;99.90;;;;;;5052548;28;20482;-65
2021/07/10 04:14:08;;;;;;;27.30;19.50;;;12.90;99.90;;;;;;5052240;28;20454;-65
2021/07/10 04:16:35;;;;;;;23.00;18.20;;;12.90;99.90;;;;;;5052095;28;20444;-66
2021/07/10 04:19:02;;;;;;;21.40;18.83;;;12.80;99.90;;;;;;5051340;28;21066;-66
2021/07/10 04:21:29;;;;;;;21.73;19.10;;;12.70;99.90;;;;;;5052003;28;20474;-66
2021/07/10 04:23:55;;;;;;;23.30;19.20;;;12.70;99.90;;;;;;5052071;28;20451;-65
2021/07/10 04:26:22;;;;;;;21.47;18.70;;;12.70;99.90;;;;;;5051794;28;20490;-66
2021/07/10 04:28:49;;;;;;;21.60;19.30;;;12.80;99.90;;;;;;5051877;28;20456;-65
2021/07/10 04:31:17;;;;;;;23.77;19.50;;;12.80;99.90;;;;;;5051568;28;20460;-65
2021/07/10 04:33:44;;;;;;;23.80;20.43;;;12.80;99.90;;;;;;5051752;28;21120;-66
2021/07/10 04:36:11;;;;;;;23.60;20.73;;;13.00;99.90;;;;;;5051612;28;21092;-65
2021/07/10 04:38:38;;;;;;;25.57;22.40;;;13.10;99.90;;;;;;5052030;28;20458;-66
2021/07/10 04:41:06;;;;;;;25.77;21.13;;;13.30;99.90;;;;;;5051090;28;20448;-66
2021/07/10 04:43:33;;;;;;;22.90;20.50;;;13.40;99.90;;;;;;5051995;28;20475;-65
2021/07/10 04:46:00;;;;;;;28.53;24.60;;;13.40;99.90;;;;;;5051199;28;20480;-65
2021/07/10 04:48:29;;;;;;;24.50;21.90;;;13.50;99.90;;;;;;5051838;28;20468;-64
2021/07/10 04:50:57;;;;;;;27.17;24.27;;;13.50;99.90;;;;;;5051011;28;20889;-65
2021/07/10 04:53:24;;;;;;;23.27;20.77;;;13.60;99.90;;;;;;5051818;28;20960;-65
2021/07/10 04:55:51;;;;;;;24.57;22.13;;;13.70;99.90;;;;;;5051897;28;20463;-65
2021/07/10 04:58:17;;;;;;;29.03;24.90;;;13.80;99.90;;;;;;5051772;28;20444;-67
2021/07/10 05:00:44;;;;;;;36.73;28.33;;;13.90;99.90;;;;;;5050725;28;20452;-66
2021/07/10 05:03:11;;;;;;;27.27;23.93;;;14.10;99.90;;;;;;5051731;28;20470;-66
2021/07/10 05:05:40;;;;;;;23.60;21.07;;;14.20;99.90;;;;;;5051489;28;20479;-66
2021/07/10 05:08:07;;;;;;;23.27;20.77;;;14.20;99.90;;;;;;5051339;28;20453;-65
2021/07/10 05:10:34;;;;;;;24.77;22.03;;;14.20;99.90;;;;;;5050404;28;20455;-65
2021/07/10 05:13:02;;;;;;;23.17;20.87;;;14.30;99.90;;;;;;5051368;28;20464;-66
2021/07/10 05:15:29;;;;;;;21.53;19.33;;;14.30;99.90;;;;;;5051468;28;20444;-65
2021/07/10 05:17:56;;;;;;;22.90;20.60;;;14.40;99.90;;;;;;5050911;28;20447;-65
2021/07/10 05:20:22;;;;;;;22.00;19.80;;;14.40;99.90;;;;;;5051030;28;20557;-65
2021/07/10 05:22:51;;;;;;;21.93;19.70;;;14.50;99.90;;;;;;5050891;28;20475;-65
2021/07/10 05:25:17;;;;;;;24.33;21.83;;;14.50;99.90;;;;;;5050689;28;20997;-65
2021/07/10 05:27:44;;;;;;;24.67;22.17;;;14.50;99.90;;;;;;5050398;28;20547;-66
2021/07/10 05:30:14;;;;;;;21.80;19.60;;;14.60;99.90;;;;;;5050168;28;20454;-65
2021/07/10 05:32:41;;;;;;;22.77;20.23;;;14.70;99.90;;;;;;5050669;28;20475;-65
2021/07/10 05:35:10;;;;;;;23.00;20.67;;;14.80;99.90;;;;;;5050814;28;20444;-67
2021/07/10 05:37:37;;;;;;;22.27;19.97;;;14.80;99.90;;;;;;5049956;28;20452;-68
2021/07/10 05:40:08;;;;;;;22.80;20.43;;;14.80;99.90;;;;;;5049949;28;20459;-65
2021/07/10 05:42:35;;;;;;;22.70;20.50;;;15.00;99.90;;;;;;5049039;28;20558;-66
2021/07/10 05:45:02;;;;;;;20.00;18.00;;;15.00;99.90;;;;;;5050451;28;20476;-66
2021/07/10 05:47:29;;;;;;;21.37;19.23;;;15.10;99.90;;;;;;5050051;28;20452;-66
2021/07/10 05:49:55;;;;;;;22.37;20.07;;;15.20;99.90;;;;;;5049197;28;20957;-66
2021/07/10 05:52:23;;;;;;;21.37;19.37;;;15.20;99.90;;;;;;5050333;28;20472;-64
2021/07/10 05:54:50;;;;;;;23.60;21.30;;;15.30;99.90;;;;;;5049945;28;21065;-65
2021/07/10 05:57:18;;;;;;;21.97;19.87;;;15.40;99.90;;;;;;5049640;28;20874;-66
2021/07/10 05:59:45;;;;;;;18.90;17.07;;;15.50;99.90;;;;;;5049257;28;20448;-65
2021/07/10 06:02:12;;;;;;;19.97;17.87;;;15.50;99.90;;;;;;5050120;28;20464;-65
2021/07/10 06:04:39;;;;;;;18.37;16.67;;;15.60;99.90;;;;;;5050047;28;20930;-66
2021/07/10 06:07:07;;;;;;;19.93;18.10;;;15.70;99.90;;;;;;5049793;28;20448;-65
2021/07/10 06:09:34;;;;;;;19.17;17.37;;;15.80;99.90;;;;;;5048833;28;20451;-65
2021/07/10 06:12:01;;;;;;;19.47;17.57;;;15.80;99.90;;;;;;5049753;28;20472;-66
2021/07/10 06:14:30;;;;;;;20.40;18.27;;;15.90;99.90;;;;;;5050022;28;20454;-65
2021/07/10 06:16:57;;;;;;;18.73;16.90;;;16.00;99.90;;;;;;5049160;28;20440;-66
2021/07/10 06:19:24;;;;;;;19.70;16.40;;;16.00;99.90;;;;;;5049117;28;20544;-67
2021/07/10 06:21:50;;;;;;;18.47;16.67;;;16.10;99.90;;;;;;5048804;28;20476;-65
2021/07/10 06:24:17;;;;;;;18.37;16.57;;;16.20;99.90;;;;;;5049502;28;20934;-66
2021/07/10 06:26:44;;;;;;;16.17;14.73;;;16.30;99.90;;;;;;5049282;28;20483;-66
2021/07/10 06:29:11;;;;;;;17.73;16.03;;;16.40;99.90;;;;;;5049120;28;20892;-66
2021/07/10 06:31:39;;;;;;;17.67;16.10;;;16.50;99.90;;;;;;5049841;28;20469;-67
2021/07/10 06:34:06;;;;;;;17.80;15.60;;;16.60;99.90;;;;;;5049769;28;20448;-66
2021/07/10 06:36:33;;;;;;;16.53;15.10;;;16.70;99.90;;;;;;5048888;28;20445;-65
2021/07/10 06:39:00;;;;;;;16.20;14.77;;;16.70;99.90;;;;;;5048849;28;20470;-67
2021/07/10 06:41:29;;;;;;;15.70;14.20;;;16.80;99.90;;;;;;5049411;28;20474;-65
2021/07/10 06:43:56;;;;;;;15.50;13.93;;;17.00;99.90;;;;;;5049362;28;20452;-65
2021/07/10 06:46:22;;;;;;;15.43;14.03;;;17.00;99.90;;;;;;5049006;28;20495;-66
2021/07/10 06:48:51;;;;;;;15.27;13.93;;;17.00;99.90;;;;;;5044502;28;20456;-65
2021/07/10 06:51:18;;;;;;;14.87;13.53;;;17.20;99.90;;;;;;5040610;28;20555;-65
2021/07/10 06:53:45;;;;;;;14.27;12.97;;;17.30;99.90;;;;;;5046080;28;20458;-65
2021/07/10 06:56:12;;;;;;;12.97;11.80;;;17.40;99.90;;;;;;5047646;28;20463;-65
2021/07/10 06:58:39;;;;;;;13.70;12.40;;;17.50;99.90;;;;;;5048991;28;20446;-66
2021/07/10 07:01:06;;;;;;;13.40;12.20;;;17.60;99.90;;;;;;5048257;28;20456;-64
2021/07/10 07:03:33;;;;;;;12.00;10.90;;;17.70;99.90;;;;;;5048728;28;20446;-65
2021/07/10 07:06:01;;;;;;;11.93;10.83;;;17.70;99.90;;;;;;5041587;28;20484;-65
2021/07/10 07:08:28;;;;;;;11.13;10.03;;;17.80;99.90;;;;;;5049160;28;20447;-66
2021/07/10 07:10:55;;;;;;;11.60;10.50;;;18.00;99.90;;;;;;5048479;28;20872;-67
2021/07/10 07:13:22;;;;;;;10.53;9.57;;;18.00;99.90;;;;;;5049252;28;20539;-66
2021/07/10 07:15:48;;;;;;;10.50;9.50;;;18.20;99.90;;;;;;5049003;28;21068;-65
2021/07/10 07:18:16;;;;;;;9.90;9.00;;;18.30;99.90;;;;;;5048748;28;20510;-66
2021/07/10 07:20:43;;;;;;;9.60;8.40;;;18.40;99.90;;;;;;5047206;28;20474;-66
2021/07/10 07:23:12;;;;;;;10.57;9.60;;;18.50;99.90;;;;;;5047598;28;20482;-67
2021/07/10 07:25:39;;;;;;;9.10;8.37;;;18.60;99.90;;;;;;5048722;28;20479;-66
2021/07/10 07:28:07;;;;;;;9.10;8.20;;;18.70;99.90;;;;;;5048567;28;20454;-66
2021/07/10 07:30:34;;;;;;;10.00;9.10;;;18.80;99.90;;;;;;5048239;28;20452;-67
2021/07/10 07:33:01;;;;;;;9.23;8.33;;;18.90;99.90;;;;;;5049424;28;20845;-66
2021/07/10 07:35:28;;;;;;;8.83;8.03;;;19.00;99.90;;;;;;5052697;28;20439;-66
2021/07/10 07:37:55;;;;;;;10.33;9.43;;;19.10;99.90;;;;;;5052549;28;20444;-66
2021/07/10 07:40:24;;;;;;;12.10;9.70;;;19.20;99.90;;;;;;5051576;28;20451;-65
2021/07/10 07:42:52;;;;;;;14.27;9.33;;;19.40;99.90;;;;;;5047842;28;20817;-67
2021/07/10 07:45:20;;;;;;;11.50;10.40;;;19.60;99.90;;;;;;5050241;28;21109;-67
2021/07/10 07:47:47;;;;;;;10.30;9.30;;;19.70;99.90;;;;;;5051801;28;20946;-66
2021/07/10 07:50:15;;;;;;;13.17;9.37;;;19.90;99.90;;;;;;5051671;28;20941;-68
2021/07/10 07:52:43;;;;;;;10.30;9.27;;;20.00;99.90;;;;;;5051866;28;20474;-67
2021/07/10 07:55:12;;;;;;;11.40;10.20;;;20.10;99.90;;;;;;5052690;28;20452;-67
2021/07/10 07:57:41;;;;;;;9.67;8.77;;;20.30;99.90;;;;;;5051886;28;20447;-67
2021/07/10 08:00:11;;;;;;;9.90;9.00;;;20.40;99.90;;;;;;5051402;28;20452;-68
2021/07/10 08:02:37;;;;;;;9.57;8.67;;;20.60;99.90;;;;;;5052091;28;20570;-68
2021/07/10 08:05:05;;;;;;;8.40;7.60;;;20.70;99.90;;;;;;5050762;28;20473;-69
2021/07/10 08:07:32;;;;;;;8.50;7.80;;;20.80;99.90;;;;;;5047607;28;20489;-67
2021/07/10 08:09:59;;;;;;;8.50;7.70;;;20.90;99.90;;;;;;5043632;28;20452;-65
2021/07/10 08:12:26;;;;;;;8.63;7.83;;;21.00;99.90;;;;;;5051731;28;20550;-66
2021/07/10 08:14:54;;;;;;;7.67;6.73;;;21.10;99.90;;;;;;5051382;28;21610;-68
2021/07/10 08:17:21;;;;;;;8.63;7.80;;;21.20;99.90;;;;;;5051366;28;20446;-67
2021/07/10 08:19:48;;;;;;;9.90;8.90;;;21.40;99.90;;;;;;5050695;28;20444;-67
2021/07/10 08:22:14;;;;;;;8.53;7.83;;;21.40;99.90;;;;;;5051377;28;20480;-67
2021/07/10 08:24:41;;;;;;;7.23;6.53;;;21.50;99.90;;;;;;5051538;28;20634;-66
2021/07/10 08:27:08;;;;;;;7.40;6.70;;;21.70;99.90;;;;;;5051302;28;20494;-66
2021/07/10 08:29:35;;;;;;;7.23;6.60;;;21.80;99.90;;;;;;5050853;28;20444;-66
2021/07/10 08:32:04;;;;;;;8.33;7.60;;;22.00;99.90;;;;;;5051831;28;20912;-66
2021/07/10 08:34:31;;;;;;;8.10;7.40;;;22.20;99.90;;;;;;5052328;28;20454;-68
2021/07/10 08:37:00;;;;;;;7.67;7.07;;;21.90;99.90;;;;;;5051862;28;20448;-66
2021/07/10 08:39:27;;;;;;;6.97;6.30;;;21.90;99.90;;;;;;5051220;28;20483;-66
2021/07/10 08:41:54;;;;;;;7.90;7.23;;;22.10;99.90;;;;;;5051724;28;20555;-66
2021/07/10 08:44:21;;;;;;;8.10;7.40;;;22.10;99.90;;;;;;5051400;28;20535;-66
2021/07/10 08:46:49;;;;;;;7.13;6.53;;;22.20;99.90;;;;;;5050987;28;20476;-67
2021/07/10 08:49:18;;;;;;;7.73;7.03;;;22.40;99.90;;;;;;5051061;28;20444;-67
2021/07/10 08:51:46;;;;;;;7.80;6.63;;;22.50;99.90;;;;;;5051209;28;20537;-66
2021/07/10 08:54:14;;;;;;;6.70;6.10;;;22.50;99.90;;;;;;5051880;28;20452;-69
2021/07/10 08:56:42;;;;;;;5.80;5.30;;;22.70;99.90;;;;;;5051167;28;20444;-67
2021/07/10 08:59:09;;;;;;;5.87;5.27;;;22.80;99.90;;;;;;5050508;28;20830;-67
2021/07/10 09:01:36;;;;;;;6.43;5.83;;;23.00;99.90;;;;;;5046894;28;20819;-68
2021/07/10 09:04:03;;;;;;;6.93;6.00;;;23.10;99.90;;;;;;5049453;28;20449;-66
2021/07/10 09:06:32;;;;;;;6.80;6.17;;;23.30;99.90;;;;;;5038802;28;20491;-69
2021/07/10 09:09:00;;;;;;;6.63;6.03;;;23.20;99.90;;;;;;5030231;28;20453;-68
2021/07/10 09:11:28;;;;;;;6.57;5.97;;;23.30;99.90;;;;;;5048085;28;20853;-65
2021/07/10 09:13:56;;;;;;;7.10;6.50;;;23.30;99.90;;;;;;5048095;28;20448;-70
2021/07/10 09:16:26;;;;;;;5.70;5.20;;;23.50;99.90;;;;;;5042816;28;20962;-67
2021/07/10 09:18:55;;;;;;;6.30;5.70;;;23.70;99.90;;;;;;5044126;28;20445;-66
2021/07/10 09:21:41;;;;;;;5.80;5.23;;;23.90;99.90;;;;;;5047792;28;20463;-65
2021/07/10 09:24:11;;;;;;;6.17;5.57;;;24.20;99.90;;;;;;5049036;28;20440;-66
2021/07/10 09:26:42;;;;;;;5.27;4.77;;;24.40;99.90;;;;;;5049191;28;20482;-66
2021/07/10 09:29:12;;;;;;;7.50;5.20;;;24.60;99.90;;;;;;5048326;28;21164;-65
2021/07/10 09:31:41;;;;;;;5.40;4.90;;;24.70;99.90;;;;;;5049732;28;20514;-65
2021/07/10 09:34:12;;;;;;;6.30;5.70;;;24.90;99.90;;;;;;5042387;28;20535;-67
2021/07/10 09:36:55;;;;;;;5.87;5.30;;;24.80;99.90;;;;;;5043992;28;20476;-66
2021/07/10 09:39:22;;;;;;;6.40;5.80;;;24.70;99.90;;;;;;5047278;28;20462;-67
2021/07/10 09:41:49;;;;;;;5.40;4.90;;;24.80;99.90;;;;;;5048711;28;20543;-65
2021/07/10 09:44:17;;;;;;;4.83;4.43;;;25.00;99.90;;;;;;5048673;28;20463;-65
2021/07/10 09:46:45;;;;;;;5.90;5.30;;;25.20;99.90;;;;;;5047597;28;20487;-65
2021/07/10 09:49:24;;;;;;;5.47;5.00;;;25.40;99.90;;;;;;5046478;28;20571;-66
2021/07/10 09:52:00;;;;;;;5.77;5.27;;;25.60;99.90;;;;;;5048090;28;20479;-68
2021/07/10 09:54:30;;;;;;;5.20;4.70;;;25.40;99.90;;;;;;5048016;28;20571;-68
2021/07/10 09:57:05;;;;;;;5.40;4.90;;;25.70;99.90;;;;;;5046743;28;20874;-69
2021/07/10 09:59:36;;;;;;;5.30;4.80;;;26.00;99.90;;;;;;5048025;28;20428;-66
2021/07/10 10:02:10;;;;;;;5.80;5.30;;;26.10;99.90;;;;;;5042111;28;20467;-66
2021/07/10 10:04:38;;;;;;;4.87;4.37;;;25.90;99.90;;;;;;5043260;28;20457;-65
2021/07/10 10:07:11;;;;;;;6.77;4.40;;;26.70;99.90;;;;;;5037183;28;20515;-66
2021/07/10 10:09:41;;;;;;;5.93;4.57;;;27.60;99.90;;;;;;5045716;28;20448;-67
2021/07/10 10:12:11;;;;;;;5.00;4.50;;;28.00;99.90;;;;;;5047024;28;20499;-66
2021/07/10 10:14:43;;;;;;;4.80;4.40;;;28.80;99.90;;;;;;5046687;28;21034;-64
2021/07/10 10:17:10;;;;;;;3.87;3.57;;;29.60;99.50;;;;;;5046616;28;20496;-67
2021/07/10 10:19:37;;;;;;;6.80;3.80;;;30.00;97.80;;;;;;5045833;28;20436;-66
2021/07/10 10:22:08;;;;;;;4.57;4.07;;;30.40;96.30;;;;;;5046877;28;20559;-72
2021/07/10 10:24:36;;;;;;;4.60;4.20;;;30.60;95.30;;;;;;5046747;28;20463;-67
2021/07/10 10:27:04;;;;;;;5.90;3.40;;;30.60;95.60;;;;;;5046315;28;20484;-65
2021/07/10 10:29:31;;;;;;;5.33;3.77;;;30.60;95.70;;;;;;5046042;28;20450;-69
2021/07/10 10:31:58;;;;;;;4.20;3.80;;;30.80;95.50;;;;;;5046291;28;20579;-66
2021/07/10 10:34:26;;;;;;;4.33;3.90;;;31.10;95.10;;;;;;5046661;28;20448;-65
2021/07/10 10:36:54;;;;;;;5.30;4.23;;;30.80;93.50;;;;;;5045520;28;21186;-66
2021/07/10 10:39:25;;;;;;;4.30;3.90;;;30.30;93.80;;;;;;5044352;28;20451;-65
2021/07/10 10:41:54;;;;;;;4.27;3.80;;;29.90;92.40;;;;;;5046550;28;20470;-65
2021/07/10 10:44:21;;;;;;;5.03;4.63;;;29.40;93.00;;;;;;5045462;28;20444;-68
2021/07/10 10:46:52;;;;;;;4.90;4.17;;;28.60;96.10;;;;;;5043984;28;20484;-64
2021/07/10 10:49:39;;;;;;;4.33;3.90;;;29.00;95.20;;;;;;5044519;28;20455;-68
2021/07/10 10:52:34;;;;;;;4.97;4.00;;;29.30;95.20;;;;;;5044926;28;20472;-65
2021/07/10 10:55:12;;;;;;;4.90;4.47;;;29.50;93.00;;;;;;5038412;28;21053;-67
2021/07/10 10:57:48;;;;;;;5.73;4.10;;;29.40;95.60;;;;;;5045963;28;20435;-65
2021/07/10 11:00:18;;;;;;;4.50;4.10;;;29.20;93.50;;;;;;5045552;28;20831;-65
2021/07/10 11:03:10;;;;;;;7.00;4.43;;;28.40;95.30;;;;;;5041805;28;20469;-67
2021/07/10 11:05:43;;;;;;;4.17;3.77;;;28.50;96.10;;;;;;5038915;28;20550;-64
2021/07/10 11:08:36;;;;;;;4.00;3.47;;;29.10;95.80;;;;;;5041702;28;20494;-66
2021/07/10 11:11:22;;;;;;;3.63;3.23;;;30.20;96.90;;;;;;5043354;28;20456;-62
2021/07/10 11:17:10;;;;;;;4.00;3.60;;;31.60;92.10;;;;;;5049297;28;20483;-64
2021/07/10 11:19:54;;;;;;;5.30;3.37;;;31.80;86.00;;;;;;5044768;28;21054;-63
2021/07/10 11:22:55;;;;;;;4.27;2.97;;;31.50;90.60;;;;;;5046860;28;20529;-64
2021/07/10 11:26:02;;;;;;;4.07;3.60;;;30.60;88.50;;;;;;5052007;28;20447;-65
2021/07/10 11:28:53;;;;;;;4.00;3.30;;;30.40;84.60;;;;;;5050647;28;20482;-64
2021/07/10 11:31:33;;;;;;;5.33;3.90;;;30.40;88.80;;;;;;5044754;28;20480;-65
2021/07/10 11:34:18;;;;;;;3.90;3.50;;;30.40;91.80;;;;;;5051996;28;20448;-65
2021/07/10 11:36:52;;;;;;;3.90;2.93;;;31.10;92.20;;;;;;5042209;28;20494;-67
2021/07/10 11:39:42;;;;;;;3.60;3.07;;;31.20;82.50;;;;;;5049374;28;20546;-63
2021/07/10 11:42:35;;;;;;;3.93;3.10;;;31.20;86.50;;;;;;5051008;28;20456;-65
2021/07/10 11:45:30;;;;;;;8.07;3.17;;;32.10;85.00;;;;;;5050625;28;21025;-65
2021/07/10 11:48:16;;;;;;;4.07;2.63;;;33.00;86.50;;;;;;5049682;28;20484;-67
2021/07/10 11:50:44;;;;;;;3.83;2.90;;;33.50;90.00;;;;;;5051360;28;20420;-65
2021/07/10 11:53:13;;;;;;;4.20;3.80;;;33.30;81.40;;;;;;5052487;28;20504;-65
2021/07/10 11:55:42;;;;;;;5.67;3.50;;;32.70;79.30;;;;;;5052492;28;20452;-66
2021/07/10 11:58:11;;;;;;;4.60;2.97;;;32.90;83.00;;;;;;5051839;28;20443;-67
2021/07/10 12:00:40;;;;;;;3.20;2.70;;;32.80;80.30;;;;;;5051586;28;20450;-68
2021/07/10 12:03:16;;;;;;;3.20;2.87;;;33.10;78.60;;;;;;5052288;28;20464;-66
2021/07/10 12:05:43;;;;;;;4.27;3.40;;;33.30;84.00;;;;;;5052194;28;20444;-66
2021/07/10 12:08:10;;;;;;;3.33;3.03;;;33.40;80.10;;;;;;5048253;28;20487;-66
2021/07/10 12:10:39;;;;;;;3.33;3.03;;;33.10;81.60;;;;;;5050829;28;20450;-65
2021/07/10 12:13:09;;;;;;;4.97;3.33;;;33.10;77.20;;;;;;5051046;28;20985;-65
2021/07/10 12:15:38;;;;;;;4.20;2.83;;;32.90;78.80;;;;;;5051861;28;20544;-65
2021/07/10 12:18:08;;;;;;;3.60;2.80;;;32.90;86.20;;;;;;5051341;28;21152;-66
2021/07/10 12:20:37;;;;;;;4.67;3.23;;;32.80;77.10;;;;;;5049995;28;20464;-67
2021/07/10 12:23:07;;;;;;;4.47;3.00;;;32.90;79.40;;;;;;5051816;28;20474;-66
2021/07/10 12:25:43;;;;;;;3.40;3.10;;;33.40;81.90;;;;;;5052338;28;20450;-66
2021/07/10 12:28:10;;;;;;;4.97;3.20;;;33.70;78.50;;;;;;5051719;28;20479;-65
2021/07/10 12:30:46;;;;;;;4.70;2.60;;;33.80;72.80;;;;;;5047859;28;20453;-64
2021/07/10 12:33:35;;;;;;;4.10;2.40;;;33.80;77.30;;;;;;5051446;28;20476;-65
2021/07/10 12:36:23;;;;;;;3.87;2.60;;;33.50;73.20;;;;;;5044358;28;20476;-67
2021/07/10 12:39:00;;;;;;;3.00;2.70;;;33.90;80.90;;;;;;5050912;28;20448;-66
2021/07/10 12:41:31;;;;;;;3.93;2.97;;;34.20;71.50;;;;;;5047660;28;20460;-66
2021/07/10 12:44:09;;;;;;;3.33;2.97;;;34.70;76.80;;;;;;5051149;28;20446;-66
2021/07/10 12:46:54;;;;;;;3.23;2.77;;;35.20;72.50;;;;;;5050636;28;20522;-66
2021/07/10 12:49:24;;;;;;;5.47;4.73;;;35.40;70.30;;;;;;5043118;28;20808;-66